Time;durP1;ratioP1;P1;durP2;ratioP2;P2;SDS_P1;SDS_P2;PMS_P1;PMS_P2;Temp;Humidity;BMP_temperature;BMP_pressure;BME280_temperature;BME280_humidity;BME280_pressure;Samples;Min_cycle;Max_cycle;Signal;HPM_P1;HPM_P2
2022/02/17 00:00:43;;;;;;;3.78;3.47;;;4.90;99.90;;;;;;6180719;23;20063;-76
2022/02/17 00:03:09;;;;;;;4.13;3.58;;;5.00;99.90;;;;;;6154431;23;20015;-76
2022/02/17 00:05:35;;;;;;;4.60;4.18;;;5.00;99.90;;;;;;6179649;23;19997;-76
2022/02/17 00:08:01;;;;;;;4.40;3.83;;;5.00;99.90;;;;;;6180039;23;20089;-76
2022/02/17 08:22:18;;;;;;;23.40;17.50;;;3.20;99.90;;;;;;6098729;22;20963;-76
2022/02/17 08:24:43;;;;;;;18.88;15.38;;;3.20;99.90;;;;;;6144582;23;20020;-75
2022/02/17 08:27:09;;;;;;;21.30;17.17;;;3.20;99.90;;;;;;6173418;23;20024;-75
2022/02/17 08:29:35;;;;;;;21.70;18.27;;;3.30;99.90;;;;;;6148514;23;20085;-75
2022/02/17 08:32:01;;;;;;;24.10;19.40;;;3.40;99.90;;;;;;6147870;23;20101;-75
2022/02/17 08:34:26;;;;;;;22.43;19.37;;;3.40;99.90;;;;;;6176862;23;20028;-75
2022/02/17 08:36:52;;;;;;;25.27;18.80;;;3.50;99.90;;;;;;6178849;23;19997;-75
2022/02/17 08:39:19;;;;;;;24.33;18.90;;;3.50;99.90;;;;;;6175752;23;20104;-75
2022/02/17 08:41:45;;;;;;;21.03;17.57;;;3.50;99.90;;;;;;6146390;23;20088;-75
2022/02/17 08:44:11;;;;;;;23.53;18.53;;;3.50;99.90;;;;;;6147413;23;20586;-75
2022/02/17 08:46:38;;;;;;;22.53;17.63;;;3.40;99.90;;;;;;6171853;23;20500;-75
2022/02/17 08:49:05;;;;;;;23.27;20.67;;;3.40;99.90;;;;;;6145992;23;20060;-75
2022/02/17 08:51:31;;;;;;;28.23;22.67;;;3.40;99.90;;;;;;6146985;23;20020;-75
2022/02/17 08:53:57;;;;;;;29.20;23.03;;;3.50;99.90;;;;;;6147492;23;20100;-75
2022/02/17 08:56:24;;;;;;;35.93;27.03;;;3.60;99.90;;;;;;6174207;23;20000;-75
2022/02/17 08:58:51;;;;;;;37.93;26.97;;;3.60;99.90;;;;;;6173041;23;20001;-75
2022/02/17 09:01:16;;;;;;;37.27;28.13;;;3.70;99.90;;;;;;6147492;23;20553;-75
2022/02/17 09:03:43;;;;;;;42.20;29.10;;;3.80;99.90;;;;;;6174366;23;20039;-75
2022/02/17 09:06:09;;;;;;;43.17;29.87;;;3.90;99.90;;;;;;6173580;23;19997;-75
2022/02/17 09:08:35;;;;;;;40.83;30.07;;;3.90;99.90;;;;;;6176069;23;20008;-75
2022/02/17 09:11:01;;;;;;;42.90;30.03;;;4.00;99.90;;;;;;6151749;23;20005;-75
2022/02/17 09:13:27;;;;;;;45.27;30.73;;;4.10;99.90;;;;;;6148994;23;20066;-75
2022/02/17 09:15:53;;;;;;;43.50;30.27;;;3.90;99.90;;;;;;6147248;23;20322;-75
2022/02/17 09:18:19;;;;;;;44.63;31.20;;;4.10;99.90;;;;;;6173839;23;20081;-75
2022/02/17 09:20:45;;;;;;;45.63;30.97;;;4.10;99.90;;;;;;6172760;23;20425;-75
2022/02/17 09:23:11;;;;;;;46.57;31.83;;;4.10;99.90;;;;;;6142397;23;20013;-75
2022/02/17 09:25:36;;;;;;;39.85;27.85;;;4.30;99.90;;;;;;6143838;23;20089;-75
2022/02/17 09:28:06;;;;;;;42.23;29.00;;;4.30;99.90;;;;;;6117156;23;20009;-75
2022/02/17 09:30:33;;;;;;;44.35;30.17;;;4.30;99.90;;;;;;6143901;23;20013;-75
2022/02/17 09:32:58;;;;;;;47.13;29.97;;;4.40;99.90;;;;;;6143471;23;20001;-75
2022/02/17 09:35:24;;;;;;;43.03;29.58;;;4.40;99.90;;;;;;6143931;23;20334;-75
2022/02/17 09:37:53;;;;;;;41.80;29.43;;;4.50;99.90;;;;;;6143433;23;20322;-75
2022/02/17 09:40:20;;;;;;;43.67;30.17;;;4.60;99.90;;;;;;6142403;23;20002;-76
2022/02/17 09:42:47;;;;;;;47.03;31.20;;;4.60;99.90;;;;;;6145179;23;20020;-75
2022/02/17 09:45:13;;;;;;;48.92;31.75;;;4.50;99.90;;;;;;6145553;23;20012;-76
2022/02/17 09:47:41;;;;;;;49.50;31.35;;;4.50;99.90;;;;;;6145219;23;20400;-75
2022/02/17 09:50:09;;;;;;;46.83;28.95;;;4.60;99.90;;;;;;6143480;23;20001;-76
2022/02/17 09:52:35;;;;;;;49.58;31.90;;;4.70;99.90;;;;;;6144053;23;20025;-75
2022/02/17 09:55:02;;;;;;;50.50;31.40;;;4.80;99.90;;;;;;6142745;23;20441;-77
2022/02/17 09:57:31;;;;;;;48.42;28.98;;;4.80;99.90;;;;;;6143801;23;20061;-76
2022/02/17 09:59:57;;;;;;;43.40;27.17;;;4.80;99.90;;;;;;6116731;23;20010;-74
2022/02/17 10:02:25;;;;;;;46.30;28.92;;;4.80;99.90;;;;;;6142887;23;20303;-75
2022/02/17 10:04:56;;;;;;;47.10;29.48;;;4.80;99.90;;;;;;6117452;23;20429;-74
2022/02/17 10:07:35;;;;;;;49.40;29.02;;;4.90;99.90;;;;;;6142396;23;20053;-75
2022/02/17 10:10:06;;;;;;;50.35;30.13;;;4.90;99.90;;;;;;6116409;23;20453;-74
2022/02/17 10:12:59;;;;;;;53.70;30.50;;;4.90;99.90;;;;;;6116424;23;20010;-75
2022/02/17 10:15:35;;;;;;;50.53;29.45;;;5.00;99.90;;;;;;6119739;23;20464;-76
2022/02/17 10:18:04;;;;;;;51.20;30.15;;;5.10;99.90;;;;;;6146984;23;20435;-75
2022/02/17 10:21:05;;;;;;;50.65;30.40;;;5.10;99.90;;;;;;6146323;23;20005;-74
2022/02/17 10:23:34;;;;;;;46.97;29.42;;;5.20;99.90;;;;;;6143099;23;20029;-75
2022/02/17 10:26:20;;;;;;;49.83;29.75;;;5.20;99.90;;;;;;6143090;23;20486;-76
2022/02/17 10:28:59;;;;;;;51.47;29.63;;;5.30;99.90;;;;;;6141311;23;20002;-76
2022/02/17 10:31:37;;;;;;;50.17;30.25;;;5.40;99.90;;;;;;6141327;23;20010;-75
2022/02/17 10:34:04;;;;;;;48.70;29.73;;;5.40;99.90;;;;;;6141033;23;20024;-74
2022/02/17 10:36:47;;;;;;;48.65;29.00;;;5.30;99.90;;;;;;6143217;23;20005;-75
2022/02/17 10:39:19;;;;;;;51.40;30.23;;;5.30;99.90;;;;;;6145023;23;20338;-75
2022/02/17 10:41:46;;;;;;;47.38;29.90;;;5.50;99.90;;;;;;6146320;23;20382;-75
2022/02/17 10:44:12;;;;;;;49.17;29.48;;;5.60;99.90;;;;;;6143296;23;20365;-75
2022/02/17 10:46:38;;;;;;;56.85;33.08;;;5.60;99.90;;;;;;6143644;23;20002;-75
2022/02/17 10:49:20;;;;;;;57.78;33.13;;;5.70;99.90;;;;;;6142074;23;20004;-75
2022/02/17 10:51:48;;;;;;;60.35;35.42;;;5.70;99.90;;;;;;6116871;23;20014;-74
2022/02/17 10:54:24;;;;;;;58.78;33.10;;;5.70;99.90;;;;;;6142933;23;20001;-74
2022/02/17 10:56:51;;;;;;;54.70;32.10;;;5.70;99.90;;;;;;6143416;23;20261;-74
2022/02/17 11:02:21;;;;;;;57.15;32.70;;;5.80;99.90;;;;;;6056226;23;20014;-74
2022/02/17 11:04:48;;;;;;;53.25;32.90;;;5.90;99.90;;;;;;6126891;23;20518;-74
2022/02/17 11:07:16;;;;;;;62.33;34.08;;;5.90;99.90;;;;;;6142402;23;19997;-75
2022/02/17 11:09:41;;;;;;;64.72;35.17;;;5.90;99.90;;;;;;6142564;23;20002;-75
2022/02/17 11:12:08;;;;;;;61.65;35.03;;;5.90;99.90;;;;;;6141085;23;20109;-74
2022/02/17 11:14:44;;;;;;;56.88;32.78;;;5.90;99.90;;;;;;6116585;23;20010;-75
2022/02/17 11:17:13;;;;;;;62.25;34.92;;;5.90;99.90;;;;;;6116699;23;20446;-75
2022/02/17 11:19:40;;;;;;;61.53;34.70;;;5.90;99.90;;;;;;6143779;23;20012;-75
2022/02/17 11:22:06;;;;;;;60.40;34.97;;;5.80;99.90;;;;;;6144894;23;20012;-76
2022/02/17 11:24:55;;;;;;;60.97;34.47;;;5.80;99.90;;;;;;6169096;23;20452;-75
2022/02/17 11:27:22;;;;;;;64.18;37.45;;;5.90;99.90;;;;;;6153261;23;20002;-76
2022/02/17 11:29:48;;;;;;;63.05;35.40;;;5.90;99.90;;;;;;6153570;23;20005;-74
2022/02/17 11:32:23;;;;;;;61.10;36.30;;;6.00;99.90;;;;;;6153783;23;20345;-76
2022/02/17 11:34:51;;;;;;;63.17;35.22;;;6.00;99.90;;;;;;6149143;23;20005;-76
2022/02/17 11:37:23;;;;;;;63.33;35.50;;;6.00;99.90;;;;;;6154571;23;20002;-76
2022/02/17 11:40:05;;;;;;;69.60;37.03;;;6.00;99.90;;;;;;6153419;23;20009;-76
2022/02/17 11:42:33;;;;;;;67.15;36.67;;;6.10;99.90;;;;;;6153281;23;20033;-74
2022/02/17 11:45:19;;;;;;;76.03;39.25;;;6.10;99.90;;;;;;6153401;23;20461;-74
2022/02/17 11:48:00;;;;;;;70.22;38.83;;;6.10;99.90;;;;;;6155167;23;20001;-75
2022/02/17 11:50:32;;;;;;;66.80;38.78;;;6.10;99.90;;;;;;6155172;23;19998;-74
2022/02/17 11:53:30;;;;;;;73.40;38.63;;;6.10;99.90;;;;;;6151419;23;20485;-75
2022/02/17 11:56:17;;;;;;;75.28;39.83;;;6.20;99.90;;;;;;6153018;23;20009;-74
2022/02/17 11:58:53;;;;;;;77.78;40.72;;;6.30;99.90;;;;;;6153446;23;20000;-75
2022/02/17 12:01:33;;;;;;;73.93;40.08;;;6.40;99.90;;;;;;6154889;23;20001;-75
2022/02/17 12:04:04;;;;;;;71.57;39.63;;;6.40;99.90;;;;;;6153431;23;20006;-76
2022/02/17 12:06:41;;;;;;;77.97;40.65;;;6.40;99.90;;;;;;6151291;23;20006;-76
2022/02/17 12:09:30;;;;;;;74.65;39.95;;;6.50;99.90;;;;;;6147984;23;20001;-80
2022/02/17 12:11:57;;;;;;;67.63;38.38;;;6.60;99.90;;;;;;6149409;23;20002;-80
2022/02/17 12:14:23;;;;;;;73.88;39.00;;;6.70;99.90;;;;;;6148721;23;20009;-80
2022/02/17 12:16:58;;;;;;;79.85;41.40;;;6.80;99.90;;;;;;6148610;23;20005;-79
2022/02/17 12:19:27;;;;;;;78.13;40.22;;;6.70;99.90;;;;;;6150020;23;20001;-78
2022/02/17 12:21:54;;;;;;;78.80;41.50;;;6.70;99.90;;;;;;6147634;23;20006;-79
2022/02/17 12:24:21;;;;;;;73.82;40.05;;;6.60;99.90;;;;;;6150242;23;20318;-80
2022/02/17 12:26:54;;;;;;;69.20;38.28;;;6.70;99.90;;;;;;6149761;23;20057;-78
2022/02/17 12:29:21;;;;;;;77.72;40.45;;;6.80;99.90;;;;;;6122998;23;20064;-78
2022/02/17 12:31:48;;;;;;;75.13;39.75;;;6.80;99.90;;;;;;6149641;23;19997;-77
2022/02/17 12:34:15;;;;;;;73.47;39.72;;;7.00;99.90;;;;;;6124383;23;20580;-79
2022/02/17 12:36:41;;;;;;;76.63;39.22;;;7.00;99.90;;;;;;6147751;23;20002;-81
2022/02/17 12:39:07;;;;;;;77.20;40.15;;;7.00;99.90;;;;;;6149197;23;19994;-79
2022/02/17 12:41:34;;;;;;;74.40;39.60;;;7.10;99.90;;;;;;6149879;23;20261;-79
2022/02/17 12:44:00;;;;;;;82.03;42.75;;;7.20;99.90;;;;;;6122951;23;20002;-80
2022/02/17 12:46:27;;;;;;;92.72;53.38;;;7.30;99.90;;;;;;6149906;23;19997;-80
2022/02/17 12:48:54;;;;;;;80.00;41.00;;;7.30;99.90;;;;;;6148985;23;20009;-79
2022/02/17 12:51:31;;;;;;;79.70;39.60;;;7.40;99.90;;;;;;6122970;23;20005;-79
2022/02/17 12:53:57;;;;;;;83.65;41.10;;;7.40;99.90;;;;;;6149356;23;20008;-79
2022/02/17 12:56:23;;;;;;;82.63;42.33;;;7.50;99.90;;;;;;6148356;23;20010;-79
2022/02/17 12:58:49;;;;;;;86.63;42.50;;;7.60;99.90;;;;;;6148863;23;20452;-79
2022/02/17 13:01:26;;;;;;;85.22;41.67;;;7.60;99.90;;;;;;6149804;23;20055;-79
2022/02/17 13:03:52;;;;;;;80.72;40.85;;;7.60;99.90;;;;;;6123746;23;20016;-79
2022/02/17 13:06:25;;;;;;;79.55;43.50;;;7.70;99.90;;;;;;6149347;23;20001;-79
2022/02/17 13:08:51;;;;;;;79.93;40.63;;;7.80;99.90;;;;;;6148832;23;20064;-79
2022/02/17 13:11:19;;;;;;;82.53;40.38;;;7.80;99.90;;;;;;6123391;23;20006;-79
2022/02/17 13:13:46;;;;;;;76.07;38.28;;;7.80;99.90;;;;;;6149950;23;20009;-79
2022/02/17 13:16:17;;;;;;;75.38;40.17;;;7.80;99.90;;;;;;6148749;23;20009;-79
2022/02/17 13:18:43;;;;;;;82.23;42.07;;;7.80;99.90;;;;;;6122704;23;20489;-79
2022/02/17 13:21:12;;;;;;;79.50;40.85;;;7.80;99.90;;;;;;6123833;23;20012;-79
2022/02/17 13:23:38;;;;;;;83.05;40.97;;;7.70;99.90;;;;;;6132612;23;20021;-79
2022/02/17 13:26:22;;;;;;;80.97;41.72;;;7.80;99.90;;;;;;6178856;23;19997;-79
2022/02/17 13:28:56;;;;;;;82.18;41.97;;;7.80;99.90;;;;;;6178411;23;20435;-79
2022/02/17 13:31:23;;;;;;;80.03;41.22;;;7.80;99.90;;;;;;6178713;23;20418;-80
2022/02/17 13:33:49;;;;;;;81.40;41.85;;;7.80;99.90;;;;;;6179714;23;20032;-79
2022/02/17 13:36:25;;;;;;;85.88;42.58;;;7.80;99.90;;;;;;6178778;23;20001;-80
2022/02/17 13:39:23;;;;;;;85.03;42.72;;;7.80;99.90;;;;;;6179054;23;20005;-79
2022/02/17 13:42:03;;;;;;;72.40;41.03;;;7.80;99.90;;;;;;6130776;23;20393;-80
2022/02/17 13:44:31;;;;;;;78.35;40.83;;;7.80;99.90;;;;;;6179641;23;20329;-80
2022/02/17 13:46:58;;;;;;;82.38;41.03;;;7.90;99.90;;;;;;6179100;23;20001;-80
2022/02/17 13:49:24;;;;;;;83.05;42.75;;;7.90;99.90;;;;;;6152305;23;20001;-80
2022/02/17 13:51:50;;;;;;;87.05;44.35;;;8.00;99.90;;;;;;6179536;23;20004;-80
2022/02/17 13:54:17;;;;;;;91.43;44.65;;;8.00;99.90;;;;;;6178705;23;20004;-80
2022/02/17 13:56:43;;;;;;;87.90;44.22;;;8.00;99.90;;;;;;6151847;23;20528;-79
2022/02/17 13:59:09;;;;;;;82.88;41.45;;;8.00;99.90;;;;;;6179587;23;20001;-80
2022/02/17 14:01:39;;;;;;;78.07;41.53;;;8.00;99.90;;;;;;6152414;23;20376;-80
2022/02/17 14:04:06;;;;;;;83.60;42.67;;;8.00;99.90;;;;;;6152054;23;20048;-80
2022/02/17 14:06:32;;;;;;;94.10;45.35;;;8.10;99.90;;;;;;6152923;23;20008;-80
2022/02/17 14:08:59;;;;;;;79.22;41.17;;;8.10;99.90;;;;;;6152162;23;20358;-80
2022/02/17 14:11:25;;;;;;;82.00;40.97;;;8.00;99.90;;;;;;6179056;23;20182;-80
2022/02/17 14:13:50;;;;;;;86.57;41.97;;;8.10;99.90;;;;;;6153106;23;20464;-80
2022/02/17 14:16:17;;;;;;;85.60;41.95;;;8.10;99.90;;;;;;6179612;23;20085;-80
2022/02/17 14:18:43;;;;;;;83.95;42.33;;;8.10;99.90;;;;;;6182682;23;20012;-80
2022/02/17 14:21:08;;;;;;;84.65;43.03;;;8.10;99.90;;;;;;6181440;23;20052;-80
2022/02/17 14:23:35;;;;;;;88.43;42.92;;;8.10;99.90;;;;;;6172389;23;20445;-80
2022/02/17 14:26:01;;;;;;;90.88;44.75;;;8.10;99.90;;;;;;6151102;23;20009;-80
2022/02/17 14:28:27;;;;;;;78.68;40.70;;;8.10;99.90;;;;;;6152228;23;20012;-80
2022/02/17 14:30:53;;;;;;;84.60;41.40;;;8.10;99.90;;;;;;6152679;23;20002;-80
2022/02/17 14:33:20;;;;;;;83.78;40.78;;;8.10;99.90;;;;;;6152437;23;20002;-80
2022/02/17 14:35:46;;;;;;;79.15;40.90;;;8.10;99.90;;;;;;6152053;23;20009;-80
2022/02/17 14:38:13;;;;;;;82.72;42.10;;;8.10;99.90;;;;;;6152705;23;20008;-76
2022/02/17 14:40:41;;;;;;;84.97;42.50;;;8.10;99.90;;;;;;6125490;23;20084;-76
2022/02/17 14:43:09;;;;;;;83.55;42.88;;;8.20;99.90;;;;;;6147953;23;20101;-76
2022/02/17 14:45:36;;;;;;;77.18;39.08;;;8.20;99.90;;;;;;6149230;23;20438;-76
2022/02/17 14:48:04;;;;;;;80.22;41.63;;;8.20;99.90;;;;;;6148149;23;20028;-80
2022/02/17 14:50:30;;;;;;;78.25;40.45;;;8.20;99.90;;;;;;6124721;23;20333;-79
2022/02/17 14:52:57;;;;;;;83.03;40.17;;;8.20;99.90;;;;;;6127172;23;20006;-80
2022/02/17 14:55:23;;;;;;;82.80;40.40;;;8.20;99.90;;;;;;6153391;23;20504;-80
2022/02/17 14:57:49;;;;;;;81.13;39.75;;;8.20;99.90;;;;;;6126919;23;20434;-80
2022/02/17 15:00:16;;;;;;;77.47;40.58;;;8.10;99.90;;;;;;6152666;23;20009;-80
2022/02/17 15:02:42;;;;;;;78.10;39.67;;;8.20;99.90;;;;;;6153250;23;20006;-79
2022/02/17 15:05:11;;;;;;;73.72;39.35;;;8.10;99.90;;;;;;6153974;23;20437;-80
2022/02/17 15:07:38;;;;;;;75.82;39.47;;;8.10;99.90;;;;;;6126964;23;20030;-80
2022/02/17 15:10:05;;;;;;;76.15;40.00;;;8.00;99.90;;;;;;6154244;23;20005;-80
2022/02/17 15:12:31;;;;;;;73.82;39.17;;;8.00;99.90;;;;;;6128352;23;20010;-80
2022/02/17 15:14:57;;;;;;;78.30;40.47;;;8.00;99.90;;;;;;6127872;23;20083;-80
2022/02/17 15:17:23;;;;;;;73.70;39.65;;;8.00;99.90;;;;;;6153706;23;20450;-81
2022/02/17 15:22:33;;;;;;;78.40;39.67;;;7.90;99.90;;;;;;6153135;23;20078;-76
2022/02/17 15:24:59;;;;;;;76.22;38.83;;;7.80;99.90;;;;;;6152936;23;20017;-76
2022/02/17 15:27:24;;;;;;;75.45;39.25;;;7.80;99.90;;;;;;6151231;23;20073;-76
2022/02/17 15:29:50;;;;;;;78.57;39.45;;;7.70;99.90;;;;;;6153062;23;19997;-76
2022/02/17 15:32:16;;;;;;;71.63;40.55;;;7.70;99.90;;;;;;6151634;23;20390;-76
2022/02/17 15:34:42;;;;;;;76.85;38.90;;;7.70;99.90;;;;;;6126879;23;20010;-76
2022/02/17 15:37:08;;;;;;;75.25;40.17;;;7.70;99.90;;;;;;6153926;23;20045;-76
2022/02/17 15:39:35;;;;;;;73.40;39.67;;;7.60;99.90;;;;;;6153540;23;20002;-76
2022/02/17 15:42:01;;;;;;;76.32;39.97;;;7.60;99.90;;;;;;6153801;23;20002;-76
2022/02/17 15:44:29;;;;;;;76.35;38.88;;;7.60;99.90;;;;;;6127002;23;20002;-76
2022/02/17 15:46:55;;;;;;;66.93;37.35;;;7.60;99.90;;;;;;6127009;23;20075;-76
2022/02/17 15:49:21;;;;;;;72.60;39.35;;;7.50;99.90;;;;;;6153422;23;20008;-76
2022/02/17 15:51:47;;;;;;;71.05;38.97;;;7.50;99.90;;;;;;6153169;23;20006;-76
2022/02/17 15:54:13;;;;;;;71.15;37.58;;;7.50;99.90;;;;;;6153627;23;20361;-77
2022/02/17 15:56:38;;;;;;;74.82;38.65;;;7.50;99.90;;;;;;6127530;23;20437;-77
2022/02/17 15:59:04;;;;;;;75.00;37.20;;;7.50;99.90;;;;;;6126958;23;20009;-77
2022/02/17 16:01:32;;;;;;;71.03;36.72;;;7.50;99.90;;;;;;6153486;23;20345;-77
2022/02/17 16:03:59;;;;;;;75.63;37.70;;;7.50;99.90;;;;;;6126409;23;20064;-77
2022/02/17 16:06:25;;;;;;;71.85;37.47;;;7.50;99.90;;;;;;6152583;23;20012;-77
2022/02/17 16:08:51;;;;;;;81.70;38.33;;;7.50;99.90;;;;;;6153188;23;20339;-76
2022/02/17 16:11:16;;;;;;;71.35;37.75;;;7.40;99.90;;;;;;6153017;23;20364;-77
2022/02/17 16:13:42;;;;;;;75.68;37.90;;;7.30;99.90;;;;;;6153113;23;20006;-76
2022/02/17 16:16:08;;;;;;;71.30;37.30;;;7.30;99.90;;;;;;6152081;23;20367;-76
2022/02/17 16:18:34;;;;;;;71.22;37.45;;;7.30;99.90;;;;;;6126774;23;20005;-77
2022/02/17 16:21:00;;;;;;;69.70;37.28;;;7.30;99.90;;;;;;6151357;23;20012;-78
2022/02/17 16:23:26;;;;;;;77.60;39.88;;;7.30;99.90;;;;;;6151918;23;20551;-77
2022/02/17 16:25:52;;;;;;;73.68;38.53;;;7.30;99.90;;;;;;6151028;23;20005;-76
2022/02/17 16:28:18;;;;;;;74.00;37.55;;;7.20;99.90;;;;;;6152055;23;20001;-77
2022/02/17 16:30:45;;;;;;;65.88;34.75;;;7.10;99.90;;;;;;6125051;23;20006;-77
2022/02/17 16:33:11;;;;;;;69.43;36.50;;;7.10;99.90;;;;;;6149765;23;20006;-77
2022/02/17 16:35:37;;;;;;;72.93;39.45;;;6.90;99.90;;;;;;6152487;23;20001;-77
2022/02/17 16:38:03;;;;;;;73.03;39.22;;;6.90;99.90;;;;;;6151535;23;20004;-77
2022/02/17 16:40:28;;;;;;;73.38;40.38;;;6.90;99.90;;;;;;6152871;23;20011;-77
2022/02/17 16:42:54;;;;;;;81.50;40.30;;;6.80;99.90;;;;;;6126288;23;20438;-77
2022/02/17 16:45:21;;;;;;;76.25;40.05;;;6.70;99.90;;;;;;6153163;23;20601;-78
2022/02/17 16:47:50;;;;;;;83.35;42.63;;;6.70;99.90;;;;;;6153506;23;20029;-76
2022/02/17 16:50:20;;;;;;;80.93;42.35;;;6.70;99.90;;;;;;6126736;23;20437;-77
2022/02/17 16:52:47;;;;;;;79.35;42.40;;;6.70;99.90;;;;;;6153372;23;20001;-77
2022/02/17 16:55:13;;;;;;;84.22;42.55;;;6.70;99.90;;;;;;6153626;23;20033;-77
2022/02/17 16:57:38;;;;;;;77.28;39.78;;;6.70;99.90;;;;;;6122858;23;20005;-80
2022/02/17 17:00:06;;;;;;;72.15;40.20;;;6.70;99.90;;;;;;6149498;23;20001;-80
2022/02/17 17:02:33;;;;;;;78.47;41.03;;;6.60;99.90;;;;;;6148616;23;20027;-80
2022/02/17 17:04:59;;;;;;;87.65;42.25;;;6.60;99.90;;;;;;6122430;23;20029;-80
2022/02/17 17:07:25;;;;;;;79.07;40.78;;;6.50;99.90;;;;;;6123487;23;20010;-80
2022/02/17 17:09:51;;;;;;;78.60;40.38;;;6.50;99.90;;;;;;6149978;23;20418;-82
2022/02/17 17:12:18;;;;;;;82.82;43.65;;;6.40;99.90;;;;;;6122801;23;20009;-81
2022/02/17 17:14:44;;;;;;;80.15;42.22;;;6.40;99.90;;;;;;6150660;23;20012;-81
2022/02/17 17:17:09;;;;;;;87.15;43.40;;;6.40;99.90;;;;;;6121943;23;20001;-80
2022/02/17 17:19:38;;;;;;;81.82;43.72;;;6.40;99.90;;;;;;6148656;23;20036;-81
2022/02/17 17:22:04;;;;;;;85.25;43.08;;;6.30;99.90;;;;;;6149880;23;20139;-80
2022/02/17 17:24:30;;;;;;;80.63;42.58;;;6.30;99.90;;;;;;6148356;23;20037;-80
2022/02/17 17:26:55;;;;;;;86.65;44.08;;;6.30;99.90;;;;;;6148163;23;20015;-80
2022/02/17 17:29:21;;;;;;;85.60;44.97;;;6.30;99.90;;;;;;6149278;23;20002;-77
2022/02/17 17:31:47;;;;;;;97.47;47.85;;;6.30;99.90;;;;;;6122379;23;20080;-78
2022/02/17 17:34:12;;;;;;;87.03;43.35;;;6.30;99.90;;;;;;6148973;23;20369;-80
2022/02/17 17:36:38;;;;;;;77.68;41.50;;;6.10;99.90;;;;;;6148501;23;20002;-80
2022/02/17 17:39:05;;;;;;;83.43;46.00;;;6.00;99.90;;;;;;6122738;23;20009;-79
2022/02/17 17:41:31;;;;;;;84.15;44.83;;;6.00;99.90;;;;;;6149285;23;20221;-80
2022/02/17 17:44:00;;;;;;;91.60;50.03;;;6.00;99.90;;;;;;6122834;23;20081;-80
2022/02/17 17:46:27;;;;;;;83.93;45.03;;;6.00;99.90;;;;;;6148429;23;20001;-80
2022/02/17 17:48:54;;;;;;;86.40;44.75;;;6.00;99.90;;;;;;6123460;23;20429;-81
2022/02/17 17:51:20;;;;;;;93.70;47.03;;;6.00;99.90;;;;;;6122880;23;20005;-81
2022/02/17 17:53:48;;;;;;;87.68;47.05;;;6.00;99.90;;;;;;6149509;23;20060;-81
2022/02/17 17:56:14;;;;;;;83.60;44.03;;;5.90;99.90;;;;;;6149324;23;20012;-81
2022/02/17 17:58:40;;;;;;;84.80;42.67;;;5.90;99.90;;;;;;6152981;23;20002;-80
2022/02/17 18:01:07;;;;;;;84.72;43.65;;;5.90;99.90;;;;;;6127298;23;20017;-80
2022/02/17 18:03:34;;;;;;;99.80;51.15;;;5.90;99.90;;;;;;6126596;23;20006;-81
2022/02/17 18:06:01;;;;;;;94.68;48.13;;;5.90;99.90;;;;;;6125448;23;20566;-81
2022/02/17 18:08:26;;;;;;;91.13;45.03;;;5.90;99.90;;;;;;6127355;23;20005;-81
2022/02/17 18:10:52;;;;;;;87.25;45.70;;;5.80;99.90;;;;;;6150807;23;20002;-80
2022/02/17 18:13:18;;;;;;;92.30;45.47;;;5.70;99.90;;;;;;6153161;23;20038;-80
2022/02/17 18:15:44;;;;;;;86.55;43.95;;;5.70;99.90;;;;;;6152373;23;20001;-81
2022/02/17 18:18:10;;;;;;;90.00;48.10;;;5.70;99.90;;;;;;6126452;23;20033;-81
2022/02/17 18:20:38;;;;;;;85.85;43.65;;;5.60;99.90;;;;;;6151338;23;20434;-81
2022/02/17 18:23:04;;;;;;;85.05;45.85;;;5.60;99.90;;;;;;6152721;23;20438;-81
2022/02/17 18:25:36;;;;;;;79.95;44.40;;;5.60;99.90;;;;;;6152195;23;20009;-80
2022/02/17 18:28:03;;;;;;;85.18;45.33;;;5.50;99.90;;;;;;6151723;23;20025;-80
2022/02/17 18:30:30;;;;;;;82.43;43.83;;;5.60;99.90;;;;;;6151722;23;20056;-81
2022/02/17 18:32:58;;;;;;;89.78;46.15;;;5.60;99.90;;;;;;6152637;23;20012;-80
2022/02/17 18:35:25;;;;;;;85.85;42.58;;;5.60;99.90;;;;;;6153142;23;20032;-80
2022/02/17 18:37:51;;;;;;;82.15;43.80;;;5.60;99.90;;;;;;6128037;23;20005;-80
2022/02/17 18:40:17;;;;;;;83.20;43.83;;;5.60;99.90;;;;;;6155576;23;20060;-80
2022/02/17 18:42:43;;;;;;;87.40;45.00;;;5.50;99.90;;;;;;6155952;23;20029;-80
2022/02/17 18:45:19;;;;;;;83.18;42.13;;;5.50;99.90;;;;;;6155408;23;20025;-80
2022/02/17 18:47:50;;;;;;;82.40;43.10;;;5.50;99.90;;;;;;6129500;23;20005;-80
2022/02/17 18:50:19;;;;;;;83.15;43.80;;;5.50;99.90;;;;;;6155803;23;20001;-80
2022/02/17 18:52:47;;;;;;;86.50;44.63;;;5.50;99.90;;;;;;6155750;23;19998;-80
2022/02/17 18:55:15;;;;;;;86.75;44.90;;;5.50;99.90;;;;;;6154968;23;20082;-80
2022/02/17 18:57:42;;;;;;;88.68;42.30;;;5.40;99.90;;;;;;6128313;23;20386;-80
2022/02/17 19:00:10;;;;;;;91.13;45.17;;;5.40;99.90;;;;;;6154331;23;20077;-80
2022/02/17 19:02:37;;;;;;;88.40;44.92;;;5.40;99.90;;;;;;6154237;23;20101;-80
2022/02/17 19:05:07;;;;;;;79.88;41.65;;;5.40;99.90;;;;;;6154026;23;20036;-80
2022/02/17 19:07:33;;;;;;;80.45;42.67;;;5.40;99.90;;;;;;6154099;23;20002;-81
2022/02/17 19:09:59;;;;;;;77.75;42.05;;;5.50;99.90;;;;;;6128242;23;20064;-80
2022/02/17 19:12:26;;;;;;;78.65;42.55;;;5.50;99.90;;;;;;6121120;23;20015;-80
2022/02/17 19:14:55;;;;;;;82.00;43.60;;;5.50;99.90;;;;;;6122607;23;20385;-80
2022/02/17 19:17:22;;;;;;;92.57;43.33;;;5.50;99.90;;;;;;6125259;23;20377;-76
2022/02/17 19:19:49;;;;;;;83.40;43.50;;;5.40;99.90;;;;;;6124419;23;20009;-76
2022/02/17 19:22:15;;;;;;;91.28;44.17;;;5.40;99.90;;;;;;6150894;23;20610;-76
2022/02/17 19:24:41;;;;;;;90.78;44.85;;;5.30;99.90;;;;;;6152037;23;20013;-76
2022/02/17 19:27:07;;;;;;;81.18;43.55;;;5.30;99.90;;;;;;6125028;23;20089;-77
2022/02/17 19:29:32;;;;;;;81.80;41.67;;;5.30;99.90;;;;;;6149721;23;20081;-77
2022/02/17 19:31:58;;;;;;;84.20;44.15;;;5.30;99.90;;;;;;6154101;23;19998;-76
2022/02/17 19:34:24;;;;;;;83.25;42.13;;;5.30;99.90;;;;;;6155359;23;20002;-76
2022/02/17 19:36:52;;;;;;;81.90;43.20;;;5.30;99.90;;;;;;6155670;23;20001;-76
2022/02/17 19:39:18;;;;;;;74.97;41.25;;;5.30;99.90;;;;;;6127922;23;20002;-76
2022/02/17 19:41:44;;;;;;;77.95;40.72;;;5.30;99.90;;;;;;6156917;23;20004;-76
2022/02/17 19:44:10;;;;;;;76.07;40.13;;;5.30;99.90;;;;;;6157525;23;20013;-76
2022/02/17 19:46:36;;;;;;;79.88;41.75;;;5.20;99.90;;;;;;6130843;23;20033;-76
2022/02/17 19:49:03;;;;;;;79.22;41.95;;;5.20;99.90;;;;;;6157102;23;19997;-76
2022/02/17 19:51:29;;;;;;;74.00;40.95;;;5.20;99.90;;;;;;6129727;23;20006;-77
2022/02/17 19:53:55;;;;;;;78.75;42.72;;;5.20;99.90;;;;;;6156935;23;20555;-76
2022/02/17 19:56:23;;;;;;;78.93;41.10;;;5.20;99.90;;;;;;6130537;23;20010;-76
2022/02/17 19:58:48;;;;;;;77.65;40.75;;;5.20;99.90;;;;;;6155797;23;20028;-76
2022/02/17 20:01:14;;;;;;;81.07;42.22;;;5.20;99.90;;;;;;6156838;23;20315;-76
2022/02/17 20:03:41;;;;;;;76.47;39.25;;;5.30;99.90;;;;;;6155524;23;20005;-76
2022/02/17 20:06:08;;;;;;;73.47;39.88;;;5.20;99.90;;;;;;6130171;23;20083;-76
2022/02/17 20:08:34;;;;;;;79.85;41.05;;;5.20;99.90;;;;;;6155806;23;20025;-77
2022/02/17 20:10:59;;;;;;;75.43;40.75;;;5.20;99.90;;;;;;6156563;23;20052;-76
2022/02/17 20:13:25;;;;;;;82.00;41.33;;;5.20;99.90;;;;;;6154813;23;20013;-76
2022/02/17 20:15:51;;;;;;;81.25;40.40;;;5.20;99.90;;;;;;6130520;23;20009;-77
2022/02/17 20:18:18;;;;;;;76.90;40.80;;;5.20;99.90;;;;;;6130855;23;20001;-77
2022/02/17 20:20:44;;;;;;;79.47;41.22;;;5.20;99.90;;;;;;6130793;23;20060;-76
2022/02/17 20:23:11;;;;;;;72.88;40.22;;;5.20;99.90;;;;;;6130318;23;20028;-76
2022/02/17 20:25:37;;;;;;;83.53;42.25;;;5.10;99.90;;;;;;6130853;23;20006;-76
2022/02/17 20:28:03;;;;;;;78.45;42.17;;;5.10;99.90;;;;;;6156069;23;20724;-76
2022/02/17 20:30:30;;;;;;;78.13;41.58;;;5.00;99.90;;;;;;6156159;23;20068;-77
2022/02/17 20:32:56;;;;;;;81.18;40.40;;;5.00;99.90;;;;;;6156892;23;20009;-76
2022/02/17 20:35:22;;;;;;;84.88;43.30;;;5.00;99.90;;;;;;6156680;23;20032;-76
2022/02/17 20:37:48;;;;;;;85.18;44.17;;;5.00;99.90;;;;;;6125735;23;20365;-77
2022/02/17 20:40:17;;;;;;;82.25;42.85;;;5.10;99.90;;;;;;6152040;23;20106;-76
2022/02/17 20:42:44;;;;;;;79.18;42.03;;;5.10;99.90;;;;;;6152501;23;20060;-76
2022/02/17 20:53:25;;;;;;;78.35;41.30;;;5.10;99.90;;;;;;6153228;23;20032;-76
2022/02/17 20:58:35;;;;;;;80.97;42.08;;;5.20;99.90;;;;;;6156839;23;20051;-77
2022/02/17 21:03:45;;;;;;;83.15;40.55;;;5.20;99.90;;;;;;6155216;23;20020;-76
2022/02/17 21:06:11;;;;;;;84.13;42.97;;;5.20;99.90;;;;;;6130457;23;20005;-80
2022/02/17 21:08:37;;;;;;;86.13;41.33;;;5.20;99.90;;;;;;6156190;23;19998;-80
2022/02/17 21:11:03;;;;;;;84.95;42.33;;;5.30;99.90;;;;;;6154237;23;20026;-80
2022/02/17 21:13:29;;;;;;;79.25;41.95;;;5.30;99.90;;;;;;6155194;23;20117;-79